Thursday, May 24, 2018, 3:25 PM EDT
Back to Local

KDSV, Dansville Municipal Airport

Location: Dansville, NY, United States Lat: 42.567
Local Time: 3:25 PM EDT (19:25 GMT) Lon: -77.717
Time Zone: US/Eastern Elev: 662 ft

Show me the last for .
Show Coded

Time T Td Feel RH Dir Speed Gust Alt SLP Vis Weather Sky Remarks
2018-05-24 14:54 82 45 - 27 290° 8 - 30.15 30.16 10 CLR None
2018-05-24 13:54 82 47 - 29 360° 13 21 30.16 30.18 10 CLR 6-hr Min Temp (2pm): 57.0°F
6-hr Max Temp (2pm): 82.0°F
2018-05-24 12:54 80 44 - 28 Variable 7 - 30.18 30.19 10 CLR None
2018-05-24 11:54 77 50 - 38 10° 6 - 30.19 30.21 10 CLR None
2018-05-24 10:54 72 49 76 44 Variable 3 - 30.21 30.22 10 CLR None
2018-05-24 09:54 68 47 - 46 - Calm - 30.22 30.24 10 CLR None
2018-05-24 08:54 62 49 - 62 - Calm - 30.23 30.25 10 CLR None
2018-05-24 07:54 57 49 - 74 130° 6 - 30.23 30.25 10 CLR 6-hr Min Temp (8am): 48.9°F
6-hr Max Temp (8am): 57.0°F
2018-05-24 06:54 52 47 - 82 150° 8 - 30.22 30.24 10 CLR None
2018-05-24 05:54 50 46 49 86 180° 3 - 30.21 30.23 10 CLR None
2018-05-24 04:54 51 46 - 82 170° 5 - 30.20 30.22 10 CLR None
2018-05-24 03:54 51 47 - 85 - Calm - 30.19 30.21 10 CLR None
2018-05-24 02:54 51 48 - 89 160° 3 - 30.18 30.20 10 CLR None
2018-05-24 01:54 52 49 - 89 130° 3 - 30.17 30.19 10 CLR 6-hr Min Temp (2am): 52.0°F
6-hr Max Temp (2am): 73.0°F
2018-05-24 00:54 55 51 - 86 160° 3 - 30.16 30.18 10 CLR 24-hr Min Temp (1am): 54.0°F
24-hr Max Temp (1am): 79.0°F
2018-05-23 23:54 57 52 - 83 160° 3 - 30.15 30.16 10 CLR None
2018-05-23 22:54 61 52 - 72 - Calm - 30.13 30.15 10 CLR None
2018-05-23 21:54 65 52 - 62 - Calm - 30.12 30.14 10 CLR None
2018-05-23 20:54 67 52 - 58 350° 3 - 30.10 30.11 10 CLR None
2018-05-23 19:54 73 51 76 46 310° 5 - 30.09 30.10 10 CLR 6-hr Min Temp (8pm): 72.0°F
6-hr Max Temp (8pm): 79.0°F
2018-05-23 18:54 75 49 - 39 330° 13 - 30.07 30.09 10 CLR None
2018-05-23 17:54 76 47 - 35 280° 10 - 30.07 30.09 10 CLR None
2018-05-23 16:54 78 49 - 35 320° 15 - 30.06 30.07 10 CLR None
2018-05-23 15:54 79 49 - 34 320° 15 21 30.05 30.06 10 CLR None

Support USWX by starting your Amazon purchase here.